createdAt,value
2018-07-31T00:00:44.400Z,97.40
2018-07-31T00:03:13.605Z,97.30
2018-07-31T00:05:44.094Z,97.40
2018-07-31T00:08:13.238Z,97.50
2018-07-31T00:10:43.738Z,98.00
2018-07-31T00:13:12.815Z,98.10
2018-07-31T00:15:42.326Z,98.20
2018-07-31T00:18:11.877Z,98.10
2018-07-31T00:20:42.619Z,98.10
2018-07-31T00:23:11.819Z,97.80
2018-07-31T00:25:42.401Z,97.90
2018-07-31T00:28:11.600Z,98.00
2018-07-31T00:30:41.595Z,98.20
2018-07-31T00:33:10.816Z,98.50
2018-07-31T00:35:40.552Z,98.80
2018-07-31T00:38:09.774Z,98.70
2018-07-31T00:40:41.520Z,98.80
2018-07-31T00:43:11.088Z,99.10
2018-07-31T00:45:42.080Z,99.30
2018-07-31T00:48:11.306Z,99.40
2018-07-31T00:50:41.336Z,99.60
2018-07-31T00:53:10.444Z,99.60
2018-07-31T00:55:40.964Z,99.60
2018-07-31T00:58:10.164Z,99.70
2018-07-31T01:00:40.234Z,99.80
2018-07-31T01:03:09.825Z,99.90
2018-07-31T01:05:40.709Z,99.90
2018-07-31T01:08:10.057Z,99.90
2018-07-31T01:10:40.987Z,99.90
2018-07-31T01:13:10.280Z,99.90
2018-07-31T01:15:41.082Z,99.80
2018-07-31T01:18:10.280Z,99.70
2018-07-31T01:20:41.686Z,99.90
2018-07-31T01:23:11.184Z,99.90
2018-07-31T01:25:41.104Z,99.90
2018-07-31T01:28:10.245Z,99.90
2018-07-31T01:30:41.460Z,99.90
2018-07-31T01:33:10.637Z,99.90
2018-07-31T01:35:40.741Z,99.90
2018-07-31T01:38:10.249Z,99.90
2018-07-31T01:40:40.429Z,99.90
2018-07-31T01:43:10.069Z,99.90
2018-07-31T01:45:41.143Z,99.90
2018-07-31T01:48:10.304Z,99.90
2018-07-31T01:50:39.952Z,99.90
2018-07-31T01:53:09.300Z,99.90
2018-07-31T01:55:40.292Z,99.90
2018-07-31T01:58:09.403Z,99.90
2018-07-31T02:00:39.947Z,99.90
2018-07-31T02:03:09.072Z,99.90
2018-07-31T02:05:38.859Z,99.90
2018-07-31T02:08:08.404Z,99.90
2018-07-31T02:10:39.160Z,99.90
2018-07-31T02:13:08.768Z,99.90
2018-07-31T02:15:39.610Z,99.90
2018-07-31T02:18:08.704Z,99.90
2018-07-31T02:20:41.165Z,99.90
2018-07-31T02:23:11.275Z,99.90
2018-07-31T02:25:42.480Z,99.90
2018-07-31T02:28:11.912Z,99.90
2018-07-31T02:30:41.941Z,99.90
2018-07-31T02:33:11.360Z,99.90
2018-07-31T02:35:42.196Z,99.90
2018-07-31T02:38:11.535Z,99.90
2018-07-31T02:40:41.272Z,99.90
2018-07-31T02:43:10.449Z,99.90
2018-07-31T02:45:41.606Z,99.90
2018-07-31T02:48:11.245Z,99.90
2018-07-31T02:50:42.181Z,99.90
2018-07-31T02:53:11.312Z,99.90
2018-07-31T02:55:42.627Z,99.90
2018-07-31T02:58:11.857Z,99.90
2018-07-31T03:00:42.003Z,99.90
2018-07-31T03:03:11.516Z,99.90
2018-07-31T03:05:41.980Z,99.90
2018-07-31T03:08:11.220Z,99.90
2018-07-31T03:10:43.170Z,99.90
2018-07-31T03:13:12.317Z,99.90
2018-07-31T03:15:42.502Z,99.90
2018-07-31T03:18:12.028Z,99.90
2018-07-31T03:20:42.776Z,99.90
2018-07-31T03:23:11.956Z,99.90
2018-07-31T03:25:42.612Z,99.90
2018-07-31T03:28:11.765Z,99.90
2018-07-31T03:30:42.276Z,99.90
2018-07-31T03:33:12.174Z,99.90
2018-07-31T03:35:43.110Z,99.90
2018-07-31T03:38:12.156Z,99.90
2018-07-31T03:40:43.558Z,99.90
2018-07-31T03:43:12.865Z,99.90
2018-07-31T03:45:43.432Z,99.90
2018-07-31T03:48:13.196Z,99.90
2018-07-31T03:50:43.377Z,99.90
2018-07-31T03:53:12.574Z,99.90
2018-07-31T03:55:43.049Z,99.90
2018-07-31T03:58:12.192Z,99.90
2018-07-31T04:00:42.756Z,99.90
2018-07-31T04:03:11.980Z,99.90
2018-07-31T04:05:42.692Z,99.90
2018-07-31T04:08:11.755Z,99.90
2018-07-31T04:10:42.612Z,99.90
2018-07-31T04:13:11.682Z,99.90
2018-07-31T04:15:42.032Z,99.90
2018-07-31T04:18:11.416Z,99.90
2018-07-31T04:20:42.064Z,99.90
2018-07-31T04:23:11.256Z,99.90
2018-07-31T04:25:42.682Z,99.90
2018-07-31T04:28:11.903Z,99.90
2018-07-31T04:30:43.609Z,99.90
2018-07-31T04:33:12.741Z,99.90
2018-07-31T04:35:43.220Z,99.90
2018-07-31T04:38:12.704Z,99.90
2018-07-31T04:40:42.592Z,99.90
2018-07-31T04:43:11.804Z,99.90
2018-07-31T04:45:42.984Z,99.90
2018-07-31T04:48:12.372Z,99.90
2018-07-31T04:50:44.508Z,99.90
2018-07-31T04:53:13.760Z,99.90
2018-07-31T04:55:43.256Z,99.90
2018-07-31T04:58:12.826Z,99.90
2018-07-31T05:00:43.167Z,99.90
2018-07-31T05:03:12.345Z,99.90
2018-07-31T05:05:42.606Z,99.90
2018-07-31T05:08:11.701Z,99.90
2018-07-31T05:10:42.135Z,99.90
2018-07-31T05:13:11.791Z,99.90
2018-07-31T05:15:43.849Z,99.90
2018-07-31T05:18:12.972Z,99.90
2018-07-31T05:20:42.821Z,99.90
2018-07-31T05:23:13.596Z,99.90
2018-07-31T05:25:44.435Z,99.90
2018-07-31T05:28:15.260Z,99.90
2018-07-31T05:30:47.422Z,99.90
2018-07-31T05:33:17.926Z,99.90
2018-07-31T05:35:47.568Z,99.90
2018-07-31T05:38:16.664Z,99.90
2018-07-31T05:40:47.340Z,99.90
2018-07-31T05:43:16.543Z,99.90
2018-07-31T05:45:46.546Z,99.90
2018-07-31T05:48:15.703Z,99.90
2018-07-31T05:50:46.086Z,99.50
2018-07-31T05:53:15.636Z,99.20
2018-07-31T05:55:46.381Z,99.30
2018-07-31T05:58:15.595Z,99.00
2018-07-31T06:00:46.005Z,98.40
2018-07-31T06:03:15.321Z,98.10
2018-07-31T06:05:46.011Z,98.00
2018-07-31T06:08:15.432Z,97.80
2018-07-31T06:10:45.653Z,97.50
2018-07-31T06:13:14.900Z,97.20
2018-07-31T06:15:45.504Z,97.00
2018-07-31T06:18:14.680Z,96.40
2018-07-31T06:20:45.243Z,96.20
2018-07-31T06:23:14.723Z,96.20
2018-07-31T06:25:45.164Z,96.20
2018-07-31T06:28:14.364Z,95.70
2018-07-31T06:30:44.899Z,95.70
2018-07-31T06:33:14.163Z,95.00
2018-07-31T06:35:44.328Z,94.70
2018-07-31T06:38:13.911Z,93.90
2018-07-31T06:40:44.395Z,93.50
2018-07-31T06:43:13.544Z,93.20
2018-07-31T06:45:43.932Z,92.40
2018-07-31T06:48:14.284Z,92.00
2018-07-31T06:50:44.808Z,91.60
2018-07-31T06:53:13.889Z,91.00
2018-07-31T06:55:44.527Z,90.70
2018-07-31T06:58:13.749Z,90.20
2018-07-31T07:00:44.592Z,89.90
2018-07-31T07:03:13.819Z,88.60
2018-07-31T07:05:44.494Z,88.30
2018-07-31T07:08:13.796Z,87.20
2018-07-31T07:10:45.176Z,87.40
2018-07-31T07:13:14.392Z,87.10
2018-07-31T07:15:44.820Z,88.30
2018-07-31T07:18:14.280Z,89.50
2018-07-31T07:20:45.622Z,88.70
2018-07-31T07:23:14.708Z,84.60
2018-07-31T07:25:45.548Z,83.20
2018-07-31T07:28:15.169Z,79.70
2018-07-31T07:30:47.132Z,76.50
2018-07-31T07:33:16.344Z,71.70
2018-07-31T07:35:46.360Z,65.40
2018-07-31T07:38:18.051Z,59.90
2018-07-31T07:40:48.314Z,54.70
2018-07-31T07:43:18.370Z,50.60
2018-07-31T07:45:48.785Z,47.10
2018-07-31T07:48:18.956Z,44.00
2018-07-31T07:50:48.141Z,45.00
2018-07-31T07:53:17.308Z,42.80
2018-07-31T07:55:46.948Z,41.80
2018-07-31T07:58:16.057Z,39.50
2018-07-31T08:00:45.340Z,36.90
2018-07-31T08:03:14.748Z,36.40
2018-07-31T08:05:43.883Z,35.70
2018-07-31T08:08:14.056Z,35.30
2018-07-31T08:10:43.891Z,36.60
2018-07-31T08:13:13.764Z,35.10
2018-07-31T08:15:42.988Z,33.20
2018-07-31T08:18:12.560Z,31.30
2018-07-31T08:20:42.177Z,30.70
2018-07-31T08:23:11.359Z,29.60
2018-07-31T08:25:40.700Z,30.70
2018-07-31T08:28:09.894Z,29.90
2018-07-31T08:30:39.064Z,30.80
2018-07-31T08:33:08.196Z,30.90
2018-07-31T08:35:37.664Z,29.40
2018-07-31T08:38:07.071Z,29.10
2018-07-31T08:40:36.273Z,29.80
2018-07-31T08:43:05.764Z,29.90
2018-07-31T08:45:34.948Z,29.70
2018-07-31T08:48:04.160Z,29.70
2018-07-31T08:50:33.867Z,29.60
2018-07-31T08:53:03.407Z,29.60
2018-07-31T08:55:32.589Z,28.80
2018-07-31T08:58:02.481Z,28.30
2018-07-31T09:00:31.675Z,27.80
2018-07-31T09:03:00.876Z,26.50
2018-07-31T09:05:30.600Z,26.90
2018-07-31T09:07:59.784Z,29.40
2018-07-31T09:10:29.017Z,27.60
2018-07-31T09:12:58.221Z,26.70
2018-07-31T09:17:56.584Z,25.10
2018-07-31T09:20:25.971Z,25.60
2018-07-31T09:22:55.212Z,25.90
2018-07-31T09:27:54.576Z,25.20
2018-07-31T09:30:23.655Z,24.00
2018-07-31T09:35:27.316Z,23.60
2018-07-31T09:37:56.389Z,22.70
2018-07-31T09:40:26.259Z,24.40
2018-07-31T09:42:56.332Z,24.00
2018-07-31T09:45:25.517Z,24.40
2018-07-31T09:47:54.652Z,24.60
2018-07-31T09:50:24.176Z,25.80
2018-07-31T09:55:22.472Z,25.30
2018-07-31T09:57:51.613Z,24.20
2018-07-31T10:00:26.542Z,24.00
2018-07-31T10:02:55.970Z,23.90
2018-07-31T10:05:25.407Z,23.70
2018-07-31T10:07:55.205Z,23.40
2018-07-31T10:10:24.454Z,23.80
2018-07-31T10:12:54.398Z,23.20
2018-07-31T10:15:23.596Z,22.90
2018-07-31T10:17:52.798Z,23.80
2018-07-31T10:20:22.176Z,23.90
2018-07-31T10:22:51.570Z,23.10
2018-07-31T10:25:20.833Z,24.00
2018-07-31T10:27:51.428Z,25.20
2018-07-31T10:30:21.872Z,26.10
2018-07-31T10:32:51.052Z,27.30
2018-07-31T10:35:20.252Z,28.90
2018-07-31T10:37:49.482Z,28.50
2018-07-31T10:40:18.617Z,27.40
2018-07-31T10:42:48.248Z,25.70
2018-07-31T10:45:17.672Z,25.10
2018-07-31T10:47:46.756Z,25.00
2018-07-31T10:50:15.856Z,24.50
2018-07-31T10:52:45.044Z,24.20
2018-07-31T10:55:14.835Z,24.30
2018-07-31T10:57:43.980Z,24.00
2018-07-31T11:00:13.494Z,23.80
2018-07-31T11:02:42.557Z,23.70
2018-07-31T11:05:11.753Z,24.40
2018-07-31T11:07:41.002Z,24.70
2018-07-31T11:10:10.052Z,24.90
2018-07-31T11:12:39.244Z,24.60
2018-07-31T11:15:08.776Z,24.60
2018-07-31T11:17:37.929Z,24.50
2018-07-31T11:20:07.164Z,24.60
2018-07-31T11:22:36.560Z,24.80
2018-07-31T11:25:06.561Z,24.90
2018-07-31T11:27:35.678Z,25.40
2018-07-31T11:30:05.365Z,26.10
2018-07-31T11:32:34.668Z,27.20
2018-07-31T11:35:03.896Z,27.80
2018-07-31T11:37:33.258Z,28.00
2018-07-31T11:40:02.572Z,27.20
2018-07-31T11:42:31.773Z,26.60
2018-07-31T11:45:01.060Z,25.80
2018-07-31T11:47:30.280Z,25.50
2018-07-31T11:49:59.576Z,25.10
2018-07-31T11:52:29.200Z,24.70
2018-07-31T11:54:58.428Z,24.80
2018-07-31T11:57:27.596Z,24.20
2018-07-31T11:59:56.796Z,24.50
2018-07-31T12:02:25.954Z,24.90
2018-07-31T12:04:55.240Z,24.70
2018-07-31T12:07:24.696Z,25.30
2018-07-31T12:09:53.942Z,25.60
2018-07-31T12:12:22.954Z,24.90
2018-07-31T12:14:52.368Z,24.60
2018-07-31T12:17:21.548Z,24.70
2018-07-31T12:19:50.744Z,24.00
2018-07-31T12:22:19.960Z,24.90
2018-07-31T12:24:49.131Z,23.20
2018-07-31T12:27:18.340Z,23.50
2018-07-31T12:29:47.776Z,23.40
2018-07-31T12:32:16.968Z,24.50
2018-07-31T12:34:46.600Z,25.30
2018-07-31T12:42:13.971Z,25.80
2018-07-31T12:44:43.188Z,26.00
2018-07-31T12:47:12.448Z,26.00
2018-07-31T12:49:41.668Z,25.40
2018-07-31T12:52:10.855Z,25.60
2018-07-31T12:54:40.072Z,25.50
2018-07-31T12:57:09.605Z,24.70
2018-07-31T12:59:39.484Z,24.40
2018-07-31T13:02:08.693Z,24.60
2018-07-31T13:04:37.793Z,24.60
2018-07-31T13:07:07.284Z,24.10
2018-07-31T13:09:36.464Z,24.20
2018-07-31T13:12:06.069Z,25.40
2018-07-31T13:14:35.796Z,25.90
2018-07-31T13:17:04.924Z,26.60
2018-07-31T13:19:34.204Z,26.40
2018-07-31T13:22:03.384Z,25.80
2018-07-31T13:24:32.800Z,24.90
2018-07-31T13:27:01.982Z,24.90
2018-07-31T13:29:31.172Z,24.80
2018-07-31T13:32:00.269Z,25.00
2018-07-31T13:34:29.364Z,24.50
2018-07-31T13:36:59.129Z,25.10
2018-07-31T13:41:57.192Z,26.80
2018-07-31T13:44:26.365Z,28.20
2018-07-31T13:46:55.672Z,28.30
2018-07-31T13:49:25.005Z,27.50
2018-07-31T13:51:54.496Z,28.20
2018-07-31T13:54:23.751Z,28.20
2018-07-31T13:56:53.575Z,27.40
2018-07-31T13:59:22.909Z,26.70
2018-07-31T14:01:52.688Z,26.00
2018-07-31T14:04:21.921Z,26.50
2018-07-31T14:06:51.380Z,26.00
2018-07-31T14:09:20.596Z,25.70
2018-07-31T14:11:49.836Z,25.20
2018-07-31T14:14:19.632Z,25.20
2018-07-31T14:16:48.903Z,25.60
2018-07-31T14:19:18.076Z,25.20
2018-07-31T14:21:47.592Z,25.20
2018-07-31T14:24:16.736Z,25.30
2018-07-31T14:29:15.332Z,25.60
2018-07-31T14:31:44.848Z,25.50
2018-07-31T14:34:14.024Z,25.40
2018-07-31T14:36:43.351Z,25.20
2018-07-31T14:39:12.720Z,25.10
2018-07-31T14:41:41.824Z,24.70
2018-07-31T14:46:40.000Z,25.60
2018-07-31T14:49:09.288Z,25.50
2018-07-31T14:51:39.296Z,25.40
2018-07-31T14:54:08.497Z,25.60
2018-07-31T14:56:37.624Z,25.50
2018-07-31T14:59:06.776Z,26.30
2018-07-31T15:01:35.915Z,26.00
2018-07-31T15:04:05.105Z,26.00
2018-07-31T15:09:05.609Z,27.10
2018-07-31T15:11:34.828Z,26.60
2018-07-31T15:14:04.672Z,26.50
2018-07-31T15:16:33.888Z,26.10
2018-07-31T15:19:03.016Z,26.60
2018-07-31T15:21:32.581Z,26.80
2018-07-31T15:24:01.742Z,27.50
2018-07-31T15:26:31.092Z,27.90
2018-07-31T15:29:00.276Z,27.50
2018-07-31T15:31:29.444Z,28.30
2018-07-31T15:33:58.530Z,28.80
2018-07-31T15:36:28.036Z,28.90
2018-07-31T15:38:57.777Z,29.50
2018-07-31T15:41:26.948Z,29.60
2018-07-31T15:43:56.036Z,29.80
2018-07-31T15:46:25.240Z,30.10
2018-07-31T15:48:54.415Z,30.10
2018-07-31T15:51:23.560Z,30.30
2018-07-31T15:53:52.743Z,30.60
2018-07-31T15:56:21.932Z,30.40
2018-07-31T15:58:51.152Z,30.20
2018-07-31T16:01:20.353Z,31.10
2018-07-31T16:03:49.526Z,30.70
2018-07-31T16:06:18.724Z,31.70
2018-07-31T16:08:48.201Z,31.90
2018-07-31T16:11:17.348Z,31.40
2018-07-31T16:13:46.444Z,31.70
2018-07-31T16:16:15.828Z,32.20
2018-07-31T16:18:44.983Z,32.40
2018-07-31T16:21:14.058Z,31.90
2018-07-31T16:23:43.644Z,32.20
2018-07-31T16:26:12.822Z,31.90
2018-07-31T16:28:42.104Z,31.70
2018-07-31T16:31:11.655Z,31.30
2018-07-31T16:36:09.800Z,32.00
2018-07-31T16:38:39.218Z,31.80
2018-07-31T16:41:09.047Z,32.10
2018-07-31T16:43:38.252Z,32.90
2018-07-31T16:46:07.562Z,33.00
2018-07-31T16:48:36.948Z,33.40
2018-07-31T16:51:06.208Z,32.40
2018-07-31T16:53:35.680Z,32.60
2018-07-31T16:56:04.803Z,34.20
2018-07-31T16:58:34.041Z,32.50
2018-07-31T17:01:03.539Z,33.20
2018-07-31T17:03:33.483Z,32.80
2018-07-31T17:06:02.777Z,32.70
2018-07-31T17:08:32.852Z,33.70
2018-07-31T17:11:02.041Z,33.00
2018-07-31T17:13:31.137Z,34.00
2018-07-31T17:16:00.225Z,34.50
2018-07-31T17:18:29.566Z,34.80
2018-07-31T17:20:59.204Z,35.20
2018-07-31T17:25:58.173Z,36.10
2018-07-31T17:28:27.369Z,36.50
2018-07-31T17:30:56.872Z,36.20
2018-07-31T17:33:26.100Z,36.60
2018-07-31T17:35:55.508Z,36.80
2018-07-31T17:43:22.618Z,39.00
2018-07-31T17:45:52.002Z,40.40
2018-07-31T17:50:50.332Z,39.70
2018-07-31T17:53:19.952Z,40.60
2018-07-31T17:55:49.160Z,40.10
2018-07-31T17:58:18.290Z,40.50
2018-07-31T18:00:47.737Z,41.20
2018-07-31T18:03:16.775Z,42.00
2018-07-31T18:05:45.923Z,42.80
2018-07-31T18:08:15.390Z,43.10
2018-07-31T18:13:15.378Z,44.90
2018-07-31T18:15:44.566Z,45.40
2018-07-31T18:18:13.680Z,45.50
2018-07-31T18:20:43.108Z,44.00
2018-07-31T18:23:12.180Z,46.40
2018-07-31T18:25:41.380Z,45.30
2018-07-31T18:28:10.810Z,47.20
2018-07-31T18:33:09.409Z,47.40
2018-07-31T18:40:37.132Z,48.40
2018-07-31T18:43:06.410Z,48.90
2018-07-31T18:45:35.552Z,49.40
2018-07-31T18:48:05.084Z,50.70
2018-07-31T18:50:34.579Z,50.80
2018-07-31T18:53:03.769Z,51.30
2018-07-31T18:55:33.064Z,51.60
2018-07-31T18:58:02.708Z,52.50
2018-07-31T19:00:31.980Z,53.40
2018-07-31T19:03:01.292Z,54.30
2018-07-31T19:05:30.525Z,54.00
2018-07-31T19:10:28.592Z,55.90
2018-07-31T19:12:58.072Z,56.30
2018-07-31T19:15:27.588Z,57.30
2018-07-31T19:17:56.776Z,57.80
2018-07-31T19:20:26.311Z,58.20
2018-07-31T19:22:55.460Z,58.50
2018-07-31T19:25:25.097Z,58.70
2018-07-31T19:27:54.863Z,59.10
2018-07-31T19:30:23.892Z,59.80
2018-07-31T19:32:54.126Z,60.10
2018-07-31T19:35:23.308Z,61.20
2018-07-31T19:37:52.521Z,61.60
2018-07-31T19:40:22.004Z,61.40
2018-07-31T19:42:51.867Z,62.40
2018-07-31T19:45:21.037Z,65.40
2018-07-31T19:47:50.560Z,67.00
2018-07-31T19:50:20.132Z,68.00
2018-07-31T19:52:49.468Z,67.80
2018-07-31T19:55:18.616Z,68.80
2018-07-31T19:57:48.068Z,69.80
2018-07-31T20:00:17.224Z,69.20
2018-07-31T20:02:46.340Z,69.40
2018-07-31T20:05:15.968Z,69.10
2018-07-31T20:07:45.124Z,70.20
2018-07-31T20:10:14.220Z,69.70
2018-07-31T20:12:43.744Z,69.80
2018-07-31T20:15:12.956Z,69.70
2018-07-31T20:17:42.373Z,69.60
2018-07-31T20:20:11.740Z,69.70
2018-07-31T20:22:40.824Z,70.20
2018-07-31T20:25:10.196Z,70.90
2018-07-31T20:27:39.475Z,71.60
2018-07-31T20:32:37.740Z,73.80
2018-07-31T20:35:07.260Z,75.40
2018-07-31T20:37:36.444Z,76.50
2018-07-31T20:40:06.132Z,76.30
2018-07-31T20:42:35.399Z,77.10
2018-07-31T20:45:04.669Z,78.20
2018-07-31T20:47:33.844Z,78.80
2018-07-31T20:50:03.984Z,78.10
2018-07-31T20:52:33.234Z,78.00
2018-07-31T20:55:02.352Z,77.80
2018-07-31T20:57:31.784Z,77.70
2018-07-31T21:00:00.848Z,77.40
2018-07-31T21:02:30.660Z,77.60
2018-07-31T21:04:59.900Z,78.10
2018-07-31T21:07:29.197Z,80.20
2018-07-31T21:09:58.340Z,80.90
2018-07-31T21:12:27.655Z,82.10
2018-07-31T21:14:56.896Z,82.60
2018-07-31T21:17:26.056Z,81.90
2018-07-31T21:19:55.294Z,83.00
2018-07-31T21:24:53.531Z,82.80
2018-07-31T21:27:22.887Z,83.10
2018-07-31T21:29:51.983Z,83.10
2018-07-31T21:32:21.275Z,84.20
2018-07-31T21:34:50.785Z,83.60
2018-07-31T21:37:19.914Z,84.30
2018-07-31T21:39:49.052Z,85.50
2018-07-31T21:42:18.572Z,86.20
2018-07-31T21:44:47.864Z,86.70
2018-07-31T21:47:17.068Z,87.40
2018-07-31T21:49:46.568Z,87.90
2018-07-31T21:52:15.767Z,87.70
2018-07-31T21:54:44.980Z,87.70
2018-07-31T21:57:14.796Z,87.80
2018-07-31T21:59:44.118Z,88.50
2018-07-31T22:02:13.289Z,88.70
2018-07-31T22:04:42.772Z,89.20
2018-07-31T22:07:11.956Z,89.90
2018-07-31T22:09:42.112Z,90.00
2018-07-31T22:12:11.808Z,90.20
2018-07-31T22:14:41.737Z,90.10
2018-07-31T22:19:40.440Z,91.00
2018-07-31T22:22:10.660Z,90.90
2018-07-31T22:24:39.875Z,91.00
2018-07-31T22:27:09.377Z,91.00
2018-07-31T22:29:38.644Z,91.10
2018-07-31T22:32:07.872Z,91.20
2018-07-31T22:34:37.460Z,91.10
2018-07-31T22:37:06.856Z,90.70
2018-07-31T22:39:36.028Z,90.70
2018-07-31T22:42:05.487Z,90.50
2018-07-31T22:44:34.893Z,90.70
2018-07-31T22:47:04.084Z,90.90
2018-07-31T22:49:33.248Z,91.70
2018-07-31T22:52:02.452Z,92.10
2018-07-31T22:54:31.649Z,92.10
2018-07-31T22:57:01.229Z,92.20
2018-07-31T22:59:31.156Z,92.20
2018-07-31T23:02:00.764Z,92.50
2018-07-31T23:04:29.976Z,92.60
2018-07-31T23:06:59.203Z,92.50
2018-07-31T23:09:28.604Z,92.70
2018-07-31T23:11:57.808Z,92.70
2018-07-31T23:14:27.048Z,92.70
2018-07-31T23:16:57.016Z,92.40
2018-07-31T23:19:26.320Z,92.90
2018-07-31T23:21:55.626Z,93.00
2018-07-31T23:24:24.991Z,93.00
2018-07-31T23:26:54.495Z,93.00
2018-07-31T23:29:23.724Z,93.20
2018-07-31T23:31:52.925Z,93.60
2018-07-31T23:34:23.108Z,93.70
2018-07-31T23:36:52.336Z,93.70
2018-07-31T23:39:21.544Z,94.00
2018-07-31T23:41:51.140Z,94.10
2018-07-31T23:44:20.220Z,94.10
2018-07-31T23:46:49.537Z,94.00
2018-07-31T23:49:19.006Z,93.80
2018-07-31T23:51:48.608Z,93.90
2018-07-31T23:54:17.815Z,94.20
2018-07-31T23:56:47.005Z,94.20
2018-07-31T23:59:16.237Z,94.10
